sensor_id;sensor_type;location;lat;lon;timestamp;P1;durP1;ratioP1;P2;durP2;ratioP2
76322;SDS011;65141;42.964;21.838;2022-12-07T00:02:09;70.13;;;41.60;;
76322;SDS011;65141;42.964;21.838;2022-12-07T00:04:35;76.95;;;41.70;;
76322;SDS011;65141;42.964;21.838;2022-12-07T00:07:01;72.35;;;42.00;;
76322;SDS011;65141;42.964;21.838;2022-12-07T00:09:29;68.35;;;38.90;;
76322;SDS011;65141;42.964;21.838;2022-12-07T00:11:55;62.92;;;39.05;;
76322;SDS011;65141;42.964;21.838;2022-12-07T00:14:21;61.15;;;39.53;;
76322;SDS011;65141;42.964;21.838;2022-12-07T00:16:48;62.13;;;36.97;;
76322;SDS011;65141;42.964;21.838;2022-12-07T00:19:14;51.15;;;34.90;;
76322;SDS011;65141;42.964;21.838;2022-12-07T00:21:41;51.95;;;32.95;;
76322;SDS011;65141;42.964;21.838;2022-12-07T00:24:07;51.38;;;33.72;;
76322;SDS011;65141;42.964;21.838;2022-12-07T00:26:36;55.35;;;33.60;;
76322;SDS011;65141;42.964;21.838;2022-12-07T00:29:04;53.47;;;34.47;;
76322;SDS011;65141;42.964;21.838;2022-12-07T00:31:31;51.85;;;32.53;;
76322;SDS011;65141;42.964;21.838;2022-12-07T00:33:59;49.40;;;30.98;;
76322;SDS011;65141;42.964;21.838;2022-12-07T00:36:25;46.67;;;30.17;;
76322;SDS011;65141;42.964;21.838;2022-12-07T00:38:51;44.63;;;29.77;;
76322;SDS011;65141;42.964;21.838;2022-12-07T00:41:18;45.35;;;30.33;;
76322;SDS011;65141;42.964;21.838;2022-12-07T00:43:45;48.42;;;30.55;;
76322;SDS011;65141;42.964;21.838;2022-12-07T00:46:11;47.58;;;29.80;;
76322;SDS011;65141;42.964;21.838;2022-12-07T00:48:38;48.38;;;30.45;;
76322;SDS011;65141;42.964;21.838;2022-12-07T00:51:04;52.22;;;31.95;;
76322;SDS011;65141;42.964;21.838;2022-12-07T00:53:30;48.67;;;31.60;;
76322;SDS011;65141;42.964;21.838;2022-12-07T00:55:56;59.50;;;38.67;;
76322;SDS011;65141;42.964;21.838;2022-12-07T00:58:23;75.18;;;48.03;;
76322;SDS011;65141;42.964;21.838;2022-12-07T01:00:49;83.40;;;50.72;;
76322;SDS011;65141;42.964;21.838;2022-12-07T01:03:16;81.97;;;50.63;;
76322;SDS011;65141;42.964;21.838;2022-12-07T01:05:49;78.20;;;47.40;;
76322;SDS011;65141;42.964;21.838;2022-12-07T01:08:16;79.03;;;48.05;;
76322;SDS011;65141;42.964;21.838;2022-12-07T01:10:42;75.57;;;47.10;;
76322;SDS011;65141;42.964;21.838;2022-12-07T01:13:08;68.07;;;43.55;;
76322;SDS011;65141;42.964;21.838;2022-12-07T01:15:34;68.00;;;43.38;;
76322;SDS011;65141;42.964;21.838;2022-12-07T01:20:30;69.97;;;41.63;;
76322;SDS011;65141;42.964;21.838;2022-12-07T01:22:56;71.03;;;40.78;;
76322;SDS011;65141;42.964;21.838;2022-12-07T01:25:22;59.80;;;38.58;;
76322;SDS011;65141;42.964;21.838;2022-12-07T01:27:48;64.25;;;38.28;;
76322;SDS011;65141;42.964;21.838;2022-12-07T01:30:14;69.85;;;40.97;;
76322;SDS011;65141;42.964;21.838;2022-12-07T01:32:40;66.72;;;39.60;;
76322;SDS011;65141;42.964;21.838;2022-12-07T01:35:06;61.35;;;38.05;;
76322;SDS011;65141;42.964;21.838;2022-12-07T01:37:33;57.97;;;36.75;;
76322;SDS011;65141;42.964;21.838;2022-12-07T01:40:00;58.45;;;35.10;;
76322;SDS011;65141;42.964;21.838;2022-12-07T01:42:26;61.15;;;36.45;;
76322;SDS011;65141;42.964;21.838;2022-12-07T01:47:38;58.60;;;35.10;;
76322;SDS011;65141;42.964;21.838;2022-12-07T01:50:04;50.95;;;32.15;;
76322;SDS011;65141;42.964;21.838;2022-12-07T01:52:31;53.72;;;31.80;;
76322;SDS011;65141;42.964;21.838;2022-12-07T01:55:00;52.95;;;34.45;;
76322;SDS011;65141;42.964;21.838;2022-12-07T01:57:27;55.63;;;32.65;;
76322;SDS011;65141;42.964;21.838;2022-12-07T01:59:53;52.83;;;32.17;;
76322;SDS011;65141;42.964;21.838;2022-12-07T02:02:25;58.45;;;34.50;;
76322;SDS011;65141;42.964;21.838;2022-12-07T02:04:52;56.13;;;35.35;;
76322;SDS011;65141;42.964;21.838;2022-12-07T02:07:19;61.08;;;35.58;;
76322;SDS011;65141;42.964;21.838;2022-12-07T02:09:46;53.05;;;33.30;;
76322;SDS011;65141;42.964;21.838;2022-12-07T02:12:12;50.92;;;30.75;;
76322;SDS011;65141;42.964;21.838;2022-12-07T02:14:38;47.42;;;29.00;;
76322;SDS011;65141;42.964;21.838;2022-12-07T02:20:26;50.42;;;28.63;;
76322;SDS011;65141;42.964;21.838;2022-12-07T02:32:28;48.05;;;29.15;;
76322;SDS011;65141;42.964;21.838;2022-12-07T02:35:06;42.72;;;27.10;;
76322;SDS011;65141;42.964;21.838;2022-12-07T02:37:40;45.63;;;26.85;;
76322;SDS011;65141;42.964;21.838;2022-12-07T02:42:36;47.75;;;28.25;;
76322;SDS011;65141;42.964;21.838;2022-12-07T02:45:03;49.25;;;29.05;;
76322;SDS011;65141;42.964;21.838;2022-12-07T02:47:30;42.42;;;26.17;;
76322;SDS011;65141;42.964;21.838;2022-12-07T02:49:57;50.90;;;30.45;;
76322;SDS011;65141;42.964;21.838;2022-12-07T02:52:24;41.90;;;25.58;;
76322;SDS011;65141;42.964;21.838;2022-12-07T02:54:50;46.85;;;26.88;;
76322;SDS011;65141;42.964;21.838;2022-12-07T02:57:34;42.63;;;26.33;;
76322;SDS011;65141;42.964;21.838;2022-12-07T03:05:03;48.92;;;27.63;;
76322;SDS011;65141;42.964;21.838;2022-12-07T03:13:16;39.25;;;23.85;;
76322;SDS011;65141;42.964;21.838;2022-12-07T03:15:50;42.10;;;24.00;;
76322;SDS011;65141;42.964;21.838;2022-12-07T03:18:19;38.17;;;22.02;;
76322;SDS011;65141;42.964;21.838;2022-12-07T03:20:46;38.78;;;22.73;;
76322;SDS011;65141;42.964;21.838;2022-12-07T03:23:16;35.47;;;21.50;;
76322;SDS011;65141;42.964;21.838;2022-12-07T03:25:45;33.35;;;21.67;;
76322;SDS011;65141;42.964;21.838;2022-12-07T03:28:13;35.33;;;19.70;;
76322;SDS011;65141;42.964;21.838;2022-12-07T03:33:31;32.83;;;19.50;;
76322;SDS011;65141;42.964;21.838;2022-12-07T03:36:03;34.17;;;20.00;;
76322;SDS011;65141;42.964;21.838;2022-12-07T03:41:07;32.30;;;20.35;;
76322;SDS011;65141;42.964;21.838;2022-12-07T03:43:35;32.60;;;20.77;;
76322;SDS011;65141;42.964;21.838;2022-12-07T03:48:50;34.15;;;19.77;;
76322;SDS011;65141;42.964;21.838;2022-12-07T03:51:28;29.73;;;18.90;;
76322;SDS011;65141;42.964;21.838;2022-12-07T03:53:58;30.23;;;19.70;;
76322;SDS011;65141;42.964;21.838;2022-12-07T03:56:25;30.30;;;19.00;;
76322;SDS011;65141;42.964;21.838;2022-12-07T03:58:52;28.92;;;19.30;;
76322;SDS011;65141;42.964;21.838;2022-12-07T04:01:19;27.85;;;19.10;;
76322;SDS011;65141;42.964;21.838;2022-12-07T04:03:45;36.17;;;22.10;;
76322;SDS011;65141;42.964;21.838;2022-12-07T04:06:11;36.35;;;21.50;;
76322;SDS011;65141;42.964;21.838;2022-12-07T04:08:37;34.53;;;19.50;;
76322;SDS011;65141;42.964;21.838;2022-12-07T04:11:03;33.47;;;20.30;;
76322;SDS011;65141;42.964;21.838;2022-12-07T04:13:30;30.95;;;19.13;;
76322;SDS011;65141;42.964;21.838;2022-12-07T04:16:16;35.13;;;22.23;;
76322;SDS011;65141;42.964;21.838;2022-12-07T04:18:42;28.98;;;19.05;;
76322;SDS011;65141;42.964;21.838;2022-12-07T04:21:08;33.25;;;20.67;;
76322;SDS011;65141;42.964;21.838;2022-12-07T04:23:34;31.10;;;19.33;;
76322;SDS011;65141;42.964;21.838;2022-12-07T04:26:00;34.15;;;20.85;;
76322;SDS011;65141;42.964;21.838;2022-12-07T04:28:26;33.65;;;21.25;;
76322;SDS011;65141;42.964;21.838;2022-12-07T04:30:52;33.80;;;20.88;;
76322;SDS011;65141;42.964;21.838;2022-12-07T04:33:18;31.73;;;19.98;;
76322;SDS011;65141;42.964;21.838;2022-12-07T04:35:44;35.67;;;22.00;;
76322;SDS011;65141;42.964;21.838;2022-12-07T04:38:10;43.25;;;24.45;;
76322;SDS011;65141;42.964;21.838;2022-12-07T04:40:36;43.00;;;25.02;;
76322;SDS011;65141;42.964;21.838;2022-12-07T04:43:02;44.10;;;25.38;;
76322;SDS011;65141;42.964;21.838;2022-12-07T04:45:29;60.67;;;34.00;;
76322;SDS011;65141;42.964;21.838;2022-12-07T04:47:55;51.35;;;29.55;;
76322;SDS011;65141;42.964;21.838;2022-12-07T04:50:22;50.90;;;30.25;;
76322;SDS011;65141;42.964;21.838;2022-12-07T04:52:48;55.05;;;32.72;;
76322;SDS011;65141;42.964;21.838;2022-12-07T04:55:14;62.13;;;34.25;;
76322;SDS011;65141;42.964;21.838;2022-12-07T04:57:40;79.38;;;43.55;;
76322;SDS011;65141;42.964;21.838;2022-12-07T05:00:06;72.50;;;41.45;;
76322;SDS011;65141;42.964;21.838;2022-12-07T05:02:32;59.90;;;37.78;;
76322;SDS011;65141;42.964;21.838;2022-12-07T05:04:58;65.63;;;37.10;;
76322;SDS011;65141;42.964;21.838;2022-12-07T05:07:25;59.22;;;34.33;;
76322;SDS011;65141;42.964;21.838;2022-12-07T05:09:51;58.20;;;34.67;;
76322;SDS011;65141;42.964;21.838;2022-12-07T05:12:17;53.88;;;33.05;;
76322;SDS011;65141;42.964;21.838;2022-12-07T05:14:43;57.08;;;33.75;;
76322;SDS011;65141;42.964;21.838;2022-12-07T05:17:09;56.13;;;34.42;;
76322;SDS011;65141;42.964;21.838;2022-12-07T05:19:36;50.60;;;34.35;;
76322;SDS011;65141;42.964;21.838;2022-12-07T05:22:02;83.35;;;50.50;;
76322;SDS011;65141;42.964;21.838;2022-12-07T05:24:28;74.95;;;45.78;;
76322;SDS011;65141;42.964;21.838;2022-12-07T05:26:54;57.58;;;37.67;;
76322;SDS011;65141;42.964;21.838;2022-12-07T05:29:21;64.22;;;40.15;;
76322;SDS011;65141;42.964;21.838;2022-12-07T05:31:47;64.85;;;38.33;;
76322;SDS011;65141;42.964;21.838;2022-12-07T05:34:13;59.58;;;37.08;;
76322;SDS011;65141;42.964;21.838;2022-12-07T05:36:39;58.40;;;36.85;;
76322;SDS011;65141;42.964;21.838;2022-12-07T05:39:05;57.58;;;34.17;;
76322;SDS011;65141;42.964;21.838;2022-12-07T05:41:32;53.67;;;32.60;;
76322;SDS011;65141;42.964;21.838;2022-12-07T05:44:17;57.88;;;33.47;;
76322;SDS011;65141;42.964;21.838;2022-12-07T05:46:43;54.40;;;34.35;;
76322;SDS011;65141;42.964;21.838;2022-12-07T05:49:09;53.33;;;33.38;;
76322;SDS011;65141;42.964;21.838;2022-12-07T05:51:36;49.17;;;31.25;;
76322;SDS011;65141;42.964;21.838;2022-12-07T05:54:02;53.47;;;31.80;;
76322;SDS011;65141;42.964;21.838;2022-12-07T05:56:28;49.08;;;29.67;;
76322;SDS011;65141;42.964;21.838;2022-12-07T05:58:54;38.35;;;23.88;;
76322;SDS011;65141;42.964;21.838;2022-12-07T06:01:39;39.72;;;24.45;;
76322;SDS011;65141;42.964;21.838;2022-12-07T06:04:05;37.92;;;23.05;;
76322;SDS011;65141;42.964;21.838;2022-12-07T06:06:31;34.78;;;21.55;;
76322;SDS011;65141;42.964;21.838;2022-12-07T06:08:57;38.55;;;22.83;;
76322;SDS011;65141;42.964;21.838;2022-12-07T06:11:23;34.00;;;22.27;;
76322;SDS011;65141;42.964;21.838;2022-12-07T06:14:08;36.88;;;22.60;;
76322;SDS011;65141;42.964;21.838;2022-12-07T06:16:34;33.08;;;22.00;;
76322;SDS011;65141;42.964;21.838;2022-12-07T06:19:01;35.63;;;22.13;;
76322;SDS011;65141;42.964;21.838;2022-12-07T06:21:27;35.55;;;22.55;;
76322;SDS011;65141;42.964;21.838;2022-12-07T06:23:53;35.83;;;21.52;;
76322;SDS011;65141;42.964;21.838;2022-12-07T06:26:19;34.13;;;20.92;;
76322;SDS011;65141;42.964;21.838;2022-12-07T06:28:46;36.38;;;20.30;;
76322;SDS011;65141;42.964;21.838;2022-12-07T06:31:12;35.85;;;21.80;;
76322;SDS011;65141;42.964;21.838;2022-12-07T06:33:38;39.53;;;22.92;;
76322;SDS011;65141;42.964;21.838;2022-12-07T06:36:04;42.83;;;24.35;;
76322;SDS011;65141;42.964;21.838;2022-12-07T06:38:30;46.63;;;28.40;;
76322;SDS011;65141;42.964;21.838;2022-12-07T06:40:57;49.42;;;29.77;;
76322;SDS011;65141;42.964;21.838;2022-12-07T06:43:23;52.95;;;31.23;;
76322;SDS011;65141;42.964;21.838;2022-12-07T06:45:50;54.25;;;34.22;;
76322;SDS011;65141;42.964;21.838;2022-12-07T06:48:16;67.00;;;39.67;;
76322;SDS011;65141;42.964;21.838;2022-12-07T06:50:45;65.80;;;38.30;;
76322;SDS011;65141;42.964;21.838;2022-12-07T06:53:11;83.75;;;48.13;;
76322;SDS011;65141;42.964;21.838;2022-12-07T06:55:38;82.55;;;46.55;;
76322;SDS011;65141;42.964;21.838;2022-12-07T06:58:04;82.60;;;50.05;;
76322;SDS011;65141;42.964;21.838;2022-12-07T07:00:30;82.82;;;53.22;;
76322;SDS011;65141;42.964;21.838;2022-12-07T07:02:56;109.20;;;64.53;;
76322;SDS011;65141;42.964;21.838;2022-12-07T07:05:22;129.13;;;82.35;;
76322;SDS011;65141;42.964;21.838;2022-12-07T07:07:49;130.05;;;77.57;;
76322;SDS011;65141;42.964;21.838;2022-12-07T07:10:15;122.90;;;75.68;;
76322;SDS011;65141;42.964;21.838;2022-12-07T07:12:41;125.25;;;79.63;;
76322;SDS011;65141;42.964;21.838;2022-12-07T07:15:07;136.48;;;77.15;;
76322;SDS011;65141;42.964;21.838;2022-12-07T07:17:34;126.88;;;75.57;;
76322;SDS011;65141;42.964;21.838;2022-12-07T07:20:00;119.57;;;72.25;;
76322;SDS011;65141;42.964;21.838;2022-12-07T07:22:26;130.85;;;79.53;;
76322;SDS011;65141;42.964;21.838;2022-12-07T07:24:52;120.15;;;76.10;;
76322;SDS011;65141;42.964;21.838;2022-12-07T07:27:18;111.43;;;75.47;;
76322;SDS011;65141;42.964;21.838;2022-12-07T07:29:44;99.70;;;67.68;;
76322;SDS011;65141;42.964;21.838;2022-12-07T07:32:11;95.65;;;64.32;;
76322;SDS011;65141;42.964;21.838;2022-12-07T07:34:37;77.68;;;50.88;;
76322;SDS011;65141;42.964;21.838;2022-12-07T07:37:03;77.03;;;51.10;;
76322;SDS011;65141;42.964;21.838;2022-12-07T07:39:29;75.28;;;48.78;;
76322;SDS011;65141;42.964;21.838;2022-12-07T07:41:55;79.90;;;55.10;;
76322;SDS011;65141;42.964;21.838;2022-12-07T07:44:21;84.07;;;56.78;;
76322;SDS011;65141;42.964;21.838;2022-12-07T07:46:47;74.32;;;49.35;;
76322;SDS011;65141;42.964;21.838;2022-12-07T07:49:13;80.30;;;54.13;;
76322;SDS011;65141;42.964;21.838;2022-12-07T07:51:40;71.90;;;50.38;;
76322;SDS011;65141;42.964;21.838;2022-12-07T07:54:06;71.20;;;48.88;;
76322;SDS011;65141;42.964;21.838;2022-12-07T07:56:32;72.03;;;44.22;;
76322;SDS011;65141;42.964;21.838;2022-12-07T07:58:58;71.40;;;48.00;;
76322;SDS011;65141;42.964;21.838;2022-12-07T08:01:24;106.25;;;62.50;;
76322;SDS011;65141;42.964;21.838;2022-12-07T08:03:50;157.30;;;86.22;;
76322;SDS011;65141;42.964;21.838;2022-12-07T08:06:16;191.60;;;103.28;;
76322;SDS011;65141;42.964;21.838;2022-12-07T08:08:42;163.48;;;93.82;;
76322;SDS011;65141;42.964;21.838;2022-12-07T08:11:09;168.90;;;109.88;;
76322;SDS011;65141;42.964;21.838;2022-12-07T08:13:35;113.13;;;72.88;;
76322;SDS011;65141;42.964;21.838;2022-12-07T08:16:05;72.50;;;48.13;;
76322;SDS011;65141;42.964;21.838;2022-12-07T08:18:35;61.80;;;39.50;;
76322;SDS011;65141;42.964;21.838;2022-12-07T08:21:02;52.03;;;34.25;;
76322;SDS011;65141;42.964;21.838;2022-12-07T08:23:28;52.47;;;36.13;;
76322;SDS011;65141;42.964;21.838;2022-12-07T08:25:55;51.70;;;32.97;;
76322;SDS011;65141;42.964;21.838;2022-12-07T08:28:25;48.35;;;31.08;;
76322;SDS011;65141;42.964;21.838;2022-12-07T08:30:51;51.10;;;34.08;;
76322;SDS011;65141;42.964;21.838;2022-12-07T08:33:17;55.42;;;38.17;;
76322;SDS011;65141;42.964;21.838;2022-12-07T08:35:44;55.45;;;37.17;;
76322;SDS011;65141;42.964;21.838;2022-12-07T08:38:10;42.20;;;31.75;;
76322;SDS011;65141;42.964;21.838;2022-12-07T08:40:37;46.35;;;34.35;;
76322;SDS011;65141;42.964;21.838;2022-12-07T08:43:03;34.90;;;24.63;;
76322;SDS011;65141;42.964;21.838;2022-12-07T08:45:29;41.58;;;27.83;;
76322;SDS011;65141;42.964;21.838;2022-12-07T08:48:02;51.80;;;33.30;;
76322;SDS011;65141;42.964;21.838;2022-12-07T08:50:30;56.88;;;35.47;;
76322;SDS011;65141;42.964;21.838;2022-12-07T08:52:57;42.70;;;28.85;;
76322;SDS011;65141;42.964;21.838;2022-12-07T08:55:24;47.38;;;30.75;;
76322;SDS011;65141;42.964;21.838;2022-12-07T08:57:50;45.17;;;30.42;;
76322;SDS011;65141;42.964;21.838;2022-12-07T09:00:17;47.22;;;29.80;;
76322;SDS011;65141;42.964;21.838;2022-12-07T09:02:43;58.53;;;31.85;;
76322;SDS011;65141;42.964;21.838;2022-12-07T09:05:10;73.78;;;37.90;;
76322;SDS011;65141;42.964;21.838;2022-12-07T09:07:37;72.70;;;35.53;;
76322;SDS011;65141;42.964;21.838;2022-12-07T09:10:05;68.13;;;39.78;;
76322;SDS011;65141;42.964;21.838;2022-12-07T09:12:31;57.47;;;30.83;;
76322;SDS011;65141;42.964;21.838;2022-12-07T09:14:58;41.40;;;27.55;;
76322;SDS011;65141;42.964;21.838;2022-12-07T09:17:25;39.95;;;24.15;;
76322;SDS011;65141;42.964;21.838;2022-12-07T09:19:52;32.75;;;22.45;;
76322;SDS011;65141;42.964;21.838;2022-12-07T09:22:18;36.22;;;24.23;;
76322;SDS011;65141;42.964;21.838;2022-12-07T09:24:44;38.35;;;25.15;;
76322;SDS011;65141;42.964;21.838;2022-12-07T09:27:10;36.70;;;25.13;;
76322;SDS011;65141;42.964;21.838;2022-12-07T09:29:37;33.13;;;24.05;;
76322;SDS011;65141;42.964;21.838;2022-12-07T09:32:03;41.83;;;28.35;;
76322;SDS011;65141;42.964;21.838;2022-12-07T09:34:32;39.28;;;26.60;;
76322;SDS011;65141;42.964;21.838;2022-12-07T09:37:00;51.50;;;30.40;;
76322;SDS011;65141;42.964;21.838;2022-12-07T09:39:26;42.50;;;29.33;;
76322;SDS011;65141;42.964;21.838;2022-12-07T09:41:52;45.63;;;32.45;;
76322;SDS011;65141;42.964;21.838;2022-12-07T09:44:23;44.75;;;31.50;;
76322;SDS011;65141;42.964;21.838;2022-12-07T09:46:49;42.40;;;31.83;;
76322;SDS011;65141;42.964;21.838;2022-12-07T09:49:18;42.90;;;31.73;;
76322;SDS011;65141;42.964;21.838;2022-12-07T09:51:45;40.05;;;28.95;;
76322;SDS011;65141;42.964;21.838;2022-12-07T09:54:15;41.10;;;31.88;;
76322;SDS011;65141;42.964;21.838;2022-12-07T09:56:42;40.40;;;30.63;;
76322;SDS011;65141;42.964;21.838;2022-12-07T09:59:12;43.50;;;31.88;;
76322;SDS011;65141;42.964;21.838;2022-12-07T10:01:39;38.25;;;25.63;;
76322;SDS011;65141;42.964;21.838;2022-12-07T10:06:32;41.30;;;30.45;;
76322;SDS011;65141;42.964;21.838;2022-12-07T10:08:58;40.92;;;29.30;;
76322;SDS011;65141;42.964;21.838;2022-12-07T10:11:24;34.55;;;23.63;;
76322;SDS011;65141;42.964;21.838;2022-12-07T10:13:53;38.65;;;27.40;;
76322;SDS011;65141;42.964;21.838;2022-12-07T10:18:54;33.42;;;25.35;;
76322;SDS011;65141;42.964;21.838;2022-12-07T10:21:21;35.10;;;25.17;;
76322;SDS011;65141;42.964;21.838;2022-12-07T10:24:13;38.20;;;31.10;;
76322;SDS011;65141;42.964;21.838;2022-12-07T10:26:50;46.58;;;37.80;;
76322;SDS011;65141;42.964;21.838;2022-12-07T10:29:18;43.28;;;38.55;;
76322;SDS011;65141;42.964;21.838;2022-12-07T10:31:45;38.80;;;33.53;;
76322;SDS011;65141;42.964;21.838;2022-12-07T10:34:28;46.35;;;41.45;;
76322;SDS011;65141;42.964;21.838;2022-12-07T10:37:07;34.00;;;29.30;;
76322;SDS011;65141;42.964;21.838;2022-12-07T10:39:40;34.15;;;29.23;;
76322;SDS011;65141;42.964;21.838;2022-12-07T10:42:08;31.35;;;26.40;;
76322;SDS011;65141;42.964;21.838;2022-12-07T10:44:41;28.98;;;24.42;;
76322;SDS011;65141;42.964;21.838;2022-12-07T11:00:21;23.35;;;20.38;;
76322;SDS011;65141;42.964;21.838;2022-12-07T11:13:15;20.05;;;15.93;;
76322;SDS011;65141;42.964;21.838;2022-12-07T11:18:49;11.63;;;10.43;;
76322;SDS011;65141;42.964;21.838;2022-12-07T11:24:19;16.02;;;10.05;;
76322;SDS011;65141;42.964;21.838;2022-12-07T11:37:28;26.00;;;20.90;;
76322;SDS011;65141;42.964;21.838;2022-12-07T11:39:58;23.35;;;16.05;;
76322;SDS011;65141;42.964;21.838;2022-12-07T11:42:27;24.67;;;18.92;;
76322;SDS011;65141;42.964;21.838;2022-12-07T11:45:00;18.85;;;15.38;;
76322;SDS011;65141;42.964;21.838;2022-12-07T11:47:46;19.92;;;12.25;;
76322;SDS011;65141;42.964;21.838;2022-12-07T11:52:58;170.18;;;112.53;;
76322;SDS011;65141;42.964;21.838;2022-12-07T11:55:29;17.52;;;13.02;;
76322;SDS011;65141;42.964;21.838;2022-12-07T11:58:10;17.70;;;12.27;;
76322;SDS011;65141;42.964;21.838;2022-12-07T12:00:39;17.02;;;10.55;;
76322;SDS011;65141;42.964;21.838;2022-12-07T12:03:11;21.42;;;12.82;;
76322;SDS011;65141;42.964;21.838;2022-12-07T12:05:38;18.17;;;11.35;;
76322;SDS011;65141;42.964;21.838;2022-12-07T12:13:38;18.25;;;11.13;;
76322;SDS011;65141;42.964;21.838;2022-12-07T12:21:22;17.80;;;10.88;;
76322;SDS011;65141;42.964;21.838;2022-12-07T12:24:11;11.70;;;7.43;;
76322;SDS011;65141;42.964;21.838;2022-12-07T12:26:35;20.00;;;12.25;;
76322;SDS011;65141;42.964;21.838;2022-12-07T12:29:23;11.07;;;7.10;;
76322;SDS011;65141;42.964;21.838;2022-12-07T12:34:59;10.20;;;5.50;;
76322;SDS011;65141;42.964;21.838;2022-12-07T12:40:46;11.35;;;5.72;;
76322;SDS011;65141;42.964;21.838;2022-12-07T12:42:48;14.60;;;8.88;;
76322;SDS011;65141;42.964;21.838;2022-12-07T12:48:30;15.10;;;8.45;;
76322;SDS011;65141;42.964;21.838;2022-12-07T12:50:33;16.70;;;9.38;;
76322;SDS011;65141;42.964;21.838;2022-12-07T12:53:32;20.35;;;12.82;;
76322;SDS011;65141;42.964;21.838;2022-12-07T13:00:46;9.23;;;5.35;;
76322;SDS011;65141;42.964;21.838;2022-12-07T13:03:26;10.10;;;6.10;;
76322;SDS011;65141;42.964;21.838;2022-12-07T13:08:39;14.82;;;5.47;;
76322;SDS011;65141;42.964;21.838;2022-12-07T13:11:20;7.88;;;5.10;;
76322;SDS011;65141;42.964;21.838;2022-12-07T13:13:50;7.28;;;4.70;;
76322;SDS011;65141;42.964;21.838;2022-12-07T13:18:42;7.65;;;4.78;;
76322;SDS011;65141;42.964;21.838;2022-12-07T13:31:43;27.70;;;14.48;;
76322;SDS011;65141;42.964;21.838;2022-12-07T13:39:57;9.60;;;5.97;;
76322;SDS011;65141;42.964;21.838;2022-12-07T13:44:51;12.57;;;6.43;;
76322;SDS011;65141;42.964;21.838;2022-12-07T13:50:15;15.00;;;8.95;;
76322;SDS011;65141;42.964;21.838;2022-12-07T13:52:46;16.05;;;8.10;;
76322;SDS011;65141;42.964;21.838;2022-12-07T13:55:14;10.88;;;6.65;;
76322;SDS011;65141;42.964;21.838;2022-12-07T13:57:41;13.55;;;6.35;;
76322;SDS011;65141;42.964;21.838;2022-12-07T14:00:15;12.27;;;6.47;;
76322;SDS011;65141;42.964;21.838;2022-12-07T14:03:00;13.35;;;6.68;;
76322;SDS011;65141;42.964;21.838;2022-12-07T14:05:28;8.63;;;6.07;;
76322;SDS011;65141;42.964;21.838;2022-12-07T14:07:55;9.38;;;5.30;;
76322;SDS011;65141;42.964;21.838;2022-12-07T14:10:53;13.18;;;6.10;;
76322;SDS011;65141;42.964;21.838;2022-12-07T14:15:53;14.55;;;7.20;;
76322;SDS011;65141;42.964;21.838;2022-12-07T14:18:52;12.02;;;7.60;;
76322;SDS011;65141;42.964;21.838;2022-12-07T14:21:22;13.23;;;7.25;;
76322;SDS011;65141;42.964;21.838;2022-12-07T14:26:33;17.80;;;9.18;;
76322;SDS011;65141;42.964;21.838;2022-12-07T14:31:43;22.05;;;12.25;;
76322;SDS011;65141;42.964;21.838;2022-12-07T14:34:12;18.13;;;9.05;;
76322;SDS011;65141;42.964;21.838;2022-12-07T14:36:38;15.32;;;8.18;;
76322;SDS011;65141;42.964;21.838;2022-12-07T14:39:05;12.18;;;7.53;;
76322;SDS011;65141;42.964;21.838;2022-12-07T14:41:31;14.52;;;7.72;;
76322;SDS011;65141;42.964;21.838;2022-12-07T14:44:15;14.90;;;9.13;;
76322;SDS011;65141;42.964;21.838;2022-12-07T14:46:41;15.25;;;9.15;;
76322;SDS011;65141;42.964;21.838;2022-12-07T14:49:08;13.40;;;7.75;;
76322;SDS011;65141;42.964;21.838;2022-12-07T14:51:34;19.40;;;10.80;;
76322;SDS011;65141;42.964;21.838;2022-12-07T14:54:01;17.60;;;9.52;;
76322;SDS011;65141;42.964;21.838;2022-12-07T14:56:28;16.45;;;10.10;;
76322;SDS011;65141;42.964;21.838;2022-12-07T14:58:54;14.15;;;8.13;;
76322;SDS011;65141;42.964;21.838;2022-12-07T15:01:20;16.58;;;8.70;;
76322;SDS011;65141;42.964;21.838;2022-12-07T15:03:47;15.82;;;9.05;;
76322;SDS011;65141;42.964;21.838;2022-12-07T15:06:14;15.35;;;8.70;;
76322;SDS011;65141;42.964;21.838;2022-12-07T15:08:41;14.93;;;9.57;;
76322;SDS011;65141;42.964;21.838;2022-12-07T15:11:13;13.32;;;9.05;;
76322;SDS011;65141;42.964;21.838;2022-12-07T15:13:39;14.02;;;8.02;;
76322;SDS011;65141;42.964;21.838;2022-12-07T15:16:24;16.02;;;9.10;;
76322;SDS011;65141;42.964;21.838;2022-12-07T15:18:50;16.38;;;9.07;;
76322;SDS011;65141;42.964;21.838;2022-12-07T15:21:16;13.38;;;7.97;;
76322;SDS011;65141;42.964;21.838;2022-12-07T15:23:43;11.57;;;7.75;;
76322;SDS011;65141;42.964;21.838;2022-12-07T15:26:11;12.90;;;8.25;;
76322;SDS011;65141;42.964;21.838;2022-12-07T15:28:38;15.63;;;8.05;;
76322;SDS011;65141;42.964;21.838;2022-12-07T15:31:10;12.35;;;8.00;;
76322;SDS011;65141;42.964;21.838;2022-12-07T15:33:36;15.45;;;9.43;;
76322;SDS011;65141;42.964;21.838;2022-12-07T15:36:03;13.18;;;9.07;;
76322;SDS011;65141;42.964;21.838;2022-12-07T15:38:29;17.88;;;10.93;;
76322;SDS011;65141;42.964;21.838;2022-12-07T15:40:55;24.08;;;13.40;;
76322;SDS011;65141;42.964;21.838;2022-12-07T15:43:22;21.00;;;12.48;;
76322;SDS011;65141;42.964;21.838;2022-12-07T15:46:07;22.55;;;12.48;;
76322;SDS011;65141;42.964;21.838;2022-12-07T15:48:33;20.13;;;11.80;;
76322;SDS011;65141;42.964;21.838;2022-12-07T15:51:06;45.80;;;25.38;;
76322;SDS011;65141;42.964;21.838;2022-12-07T15:53:32;17.65;;;12.07;;
76322;SDS011;65141;42.964;21.838;2022-12-07T15:55:59;20.02;;;11.93;;
76322;SDS011;65141;42.964;21.838;2022-12-07T15:58:25;19.05;;;12.40;;
76322;SDS011;65141;42.964;21.838;2022-12-07T16:00:51;24.33;;;14.75;;
76322;SDS011;65141;42.964;21.838;2022-12-07T16:03:18;18.92;;;11.75;;
76322;SDS011;65141;42.964;21.838;2022-12-07T16:05:53;21.23;;;12.27;;
76322;SDS011;65141;42.964;21.838;2022-12-07T16:08:19;24.52;;;13.32;;
76322;SDS011;65141;42.964;21.838;2022-12-07T16:10:45;23.77;;;13.70;;
76322;SDS011;65141;42.964;21.838;2022-12-07T16:13:11;23.42;;;13.95;;
76322;SDS011;65141;42.964;21.838;2022-12-07T16:15:41;25.90;;;15.40;;
76322;SDS011;65141;42.964;21.838;2022-12-07T16:18:08;33.53;;;19.45;;
76322;SDS011;65141;42.964;21.838;2022-12-07T16:20:34;33.78;;;22.67;;
76322;SDS011;65141;42.964;21.838;2022-12-07T16:23:00;27.83;;;20.08;;
76322;SDS011;65141;42.964;21.838;2022-12-07T16:25:26;30.98;;;19.23;;
76322;SDS011;65141;42.964;21.838;2022-12-07T16:27:53;27.55;;;16.92;;
76322;SDS011;65141;42.964;21.838;2022-12-07T16:30:19;23.27;;;14.13;;
76322;SDS011;65141;42.964;21.838;2022-12-07T16:32:45;16.13;;;8.60;;
76322;SDS011;65141;42.964;21.838;2022-12-07T16:35:11;9.23;;;6.15;;
76322;SDS011;65141;42.964;21.838;2022-12-07T16:37:38;12.40;;;7.47;;
76322;SDS011;65141;42.964;21.838;2022-12-07T16:40:04;11.77;;;6.85;;
76322;SDS011;65141;42.964;21.838;2022-12-07T16:42:31;15.00;;;8.20;;
76322;SDS011;65141;42.964;21.838;2022-12-07T16:44:57;14.45;;;8.95;;